M I D A S
Marine Information and Data Acquisition System
Tripno 1428 of the Zeeleeuw from 2008-02-25 07:37:06 to 2008-02-25 14:37:06
Back to CruiseResearch ActivitiesStationsMapUnderway DataData graphs

EquipmentUnitsComment
TimeDGPSUTC
LatitudeDGPSDM.mWGS84
LongitudeDGPSDM.mWGS84
HeadingGyrodeg 
SOGDGPSknotsSpeed over ground
COGDGPSdegCourse over ground
DepthEcho soundermeters200 kHz
Missing or incorrect values are displayed as -999
Navigation data collected by the RV Zeeleeuw from 2008-02-25 07:27:03 to 2008-02-25 14:47:41
                                                                                    Next 1000 lines
Time Latitude Longitude Heading SOG COG Depth
2008-02-25 07:27:13 51°13.664 2°55.955 127.6 0.1 208 6.2
2008-02-25 07:27:18 51°13.664 2°55.955 126.6 -999 75 6.2
2008-02-25 07:27:23 51°13.664 2°55.955 125.3 0.1 207 6.3
2008-02-25 07:27:28 51°13.664 2°55.955 125.1 0.1 118 -999
2008-02-25 07:27:33 51°13.664 2°55.955 125.5 0.1 125 -999
2008-02-25 07:27:38 51°13.664 2°55.956 126 0.1 90 6.2
2008-02-25 07:27:43 51°13.663 2°55.955 126.5 0.1 191 6.2
2008-02-25 07:27:48 51°13.663 2°55.955 126.9 -999 307 6.3
2008-02-25 07:27:53 51°13.663 2°55.955 127.2 -999 245 6.3
2008-02-25 07:27:58 51°13.663 2°55.955 127.3 0.1 233 6.4
2008-02-25 07:28:03 51°13.663 2°55.955 127.4 -999 331 6.4
2008-02-25 07:28:07 51°13.664 2°55.955 127.5 -999 89 6.3
2008-02-25 07:28:13 51°13.664 2°55.955 127.5 -999 297 -999
2008-02-25 07:28:18 51°13.664 2°55.955 127.5 0.1 299 6.3
2008-02-25 07:28:23 51°13.664 2°55.955 127.5 0.1 349 6.3
2008-02-25 07:28:28 51°13.664 2°55.955 127.5 -999 8 6.3
2008-02-25 07:28:33 51°13.664 2°55.956 127.4 0.1 1 -999
2008-02-25 07:28:38 51°13.664 2°55.956 127 -999 38 6.2
2008-02-25 07:28:43 51°13.664 2°55.956 126.7 -999 33 -999
2008-02-25 07:28:48 51°13.664 2°55.956 126.7 -999 254 6.1
2008-02-25 07:28:53 51°13.664 2°55.956 126.7 0.1 358 6.1
2008-02-25 07:28:58 51°13.664 2°55.956 126.7 -999 319 -999
2008-02-25 07:29:03 51°13.665 2°55.956 126.7 -999 152 6.1
2008-02-25 07:29:08 51°13.665 2°55.956 126.9 -999 142 6.1
2008-02-25 07:29:13 51°13.665 2°55.956 126.9 0.1 141 -999
2008-02-25 07:29:18 51°13.665 2°55.956 126.9 -999 143 6.1
2008-02-25 07:29:23 51°13.665 2°55.956 126.8 0.1 184 -999
2008-02-25 07:29:28 51°13.665 2°55.956 126.8 0.1 204 -999
2008-02-25 07:29:33 51°13.665 2°55.956 127 -999 327 6.2
2008-02-25 07:29:38 51°13.665 2°55.956 127 -999 270 -999
2008-02-25 07:29:43 51°13.665 2°55.956 127.2 0.1 298 -999
2008-02-25 07:29:48 51°13.665 2°55.956 127.3 0.1 350 6.2
2008-02-25 07:29:53 51°13.665 2°55.956 127.4 -999 202 6.2
2008-02-25 07:29:58 51°13.665 2°55.956 127.5 -999 338 6.2
2008-02-25 07:30:03 51°13.665 2°55.956 127.5 -999 8 6.3
2008-02-25 07:30:08 51°13.665 2°55.956 127.2 0.1 137 6.2
2008-02-25 07:30:13 51°13.665 2°55.956 126.9 0.1 156 6.2
2008-02-25 07:30:18 51°13.665 2°55.956 126.9 0.1 201 6.3
2008-02-25 07:30:23 51°13.665 2°55.956 127.1 0.1 244 6.3
2008-02-25 07:30:27 51°13.665 2°55.956 127.6 -999 334 6.3
2008-02-25 07:30:33 51°13.665 2°55.956 128.2 0.1 232 6.3
2008-02-25 07:30:38 51°13.665 2°55.956 128.3 -999 185 6.2
2008-02-25 07:30:43 51°13.665 2°55.956 128 0.1 263 6.2
2008-02-25 07:30:48 51°13.666 2°55.956 127.6 -999 34 6.2
2008-02-25 07:30:53 51°13.666 2°55.956 127.6 -999 185 6.2
2008-02-25 07:30:58 51°13.665 2°55.956 127.6 -999 105 6.2
2008-02-25 07:31:03 51°13.665 2°55.956 127.6 0.1 194 6.2
2008-02-25 07:31:08 51°13.665 2°55.956 127.6 -999 101 6.3
2008-02-25 07:31:13 51°13.665 2°55.956 127.9 -999 280 6.3
2008-02-25 07:31:18 51°13.665 2°55.956 128 -999 103 6.3
2008-02-25 07:31:23 51°13.665 2°55.956 128 0.1 212 6.3
2008-02-25 07:31:28 51°13.665 2°55.956 127.8 -999 353 6.3
2008-02-25 07:31:33 51°13.665 2°55.956 127.8 0.1 196 6.3
2008-02-25 07:31:38 51°13.665 2°55.956 127.8 -999 21 6.2
2008-02-25 07:31:43 51°13.665 2°55.956 127.8 -999 325 6.2
2008-02-25 07:31:48 51°13.665 2°55.956 127.8 -999 183 6.2
2008-02-25 07:31:53 51°13.665 2°55.956 127.8 -999 221 6.2
2008-02-25 07:31:58 51°13.665 2°55.956 127.8 -999 333 6.2
2008-02-25 07:32:03 51°13.665 2°55.956 127.8 -999 182 6.1
2008-02-25 07:32:07 51°13.665 2°55.956 127.8 -999 184 6.1
2008-02-25 07:32:13 51°13.665 2°55.956 127.8 -999 201 6.1
2008-02-25 07:32:18 51°13.665 2°55.956 127.8 -999 44 -999
2008-02-25 07:32:23 51°13.665 2°55.956 127.8 -999 1 6.2
2008-02-25 07:32:28 51°13.665 2°55.956 127.8 -999 12 6.2
2008-02-25 07:32:33 51°13.665 2°55.956 127.8 -999 354 6.2
2008-02-25 07:32:38 51°13.665 2°55.956 127.8 -999 352 6.2
2008-02-25 07:32:43 51°13.665 2°55.955 127.8 -999 264 6.3
2008-02-25 07:32:48 51°13.665 2°55.955 127.8 -999 325 6.3
2008-02-25 07:32:53 51°13.665 2°55.955 127.8 -999 7 6.2
2008-02-25 07:32:58 51°13.665 2°55.955 127.9 -999 60 6.2
2008-02-25 07:33:03 51°13.665 2°55.955 127.9 -999 297 6.2
2008-02-25 07:33:08 51°13.665 2°55.955 127.9 -999 351 6.2
2008-02-25 07:33:13 51°13.665 2°55.955 127.8 -999 147 6.2
2008-02-25 07:33:18 51°13.665 2°55.955 127.6 -999 99 6.1
2008-02-25 07:33:23 51°13.665 2°55.955 127.5 -999 295 6.1
2008-02-25 07:33:28 51°13.665 2°55.955 127.4 0.1 358 6.1
2008-02-25 07:33:33 51°13.665 2°55.955 127.3 -999 151 6.1
2008-02-25 07:33:38 51°13.665 2°55.955 127.3 -999 113 6.1
2008-02-25 07:33:43 51°13.665 2°55.955 127.3 0.1 149 6.1
2008-02-25 07:33:48 51°13.665 2°55.955 127.3 -999 129 6.1
2008-02-25 07:33:53 51°13.665 2°55.955 127.4 -999 277 6.1
2008-02-25 07:33:58 51°13.665 2°55.955 127.6 0.1 330 6.1
2008-02-25 07:34:03 51°13.665 2°55.955 127.9 0.1 267 6.1
2008-02-25 07:34:08 51°13.665 2°55.955 127.9 -999 348 6.1
2008-02-25 07:34:13 51°13.665 2°55.955 127.9 -999 332 6.1
2008-02-25 07:34:18 51°13.665 2°55.955 127.6 -999 345 6.1
2008-02-25 07:34:23 51°13.665 2°55.955 127.3 -999 316 6.1
2008-02-25 07:34:28 51°13.665 2°55.955 126.9 -999 220 -999
2008-02-25 07:34:33 51°13.665 2°55.955 126.7 -999 282 6.1
2008-02-25 07:34:38 51°13.665 2°55.955 126.6 -999 296 6.1
2008-02-25 07:34:43 51°13.665 2°55.955 126.6 -999 131 -999
2008-02-25 07:34:48 51°13.665 2°55.955 126.6 -999 148 6.1
2008-02-25 07:34:53 51°13.665 2°55.955 126.7 -999 148 6.1
2008-02-25 07:34:58 51°13.665 2°55.955 126.9 0.1 175 6.1
2008-02-25 07:35:03 51°13.665 2°55.955 127.3 0.1 228 6.1
2008-02-25 07:35:08 51°13.665 2°55.955 127.7 -999 36 6.1
2008-02-25 07:35:13 51°13.665 2°55.955 128.2 -999 167 6.1
2008-02-25 07:35:18 51°13.665 2°55.955 128.3 -999 19 6
2008-02-25 07:35:23 51°13.665 2°55.956 128.1 -999 115 6
2008-02-25 07:35:28 51°13.665 2°55.956 127.9 0.1 108 6
2008-02-25 07:35:33 51°13.665 2°55.956 127.6 -999 58 6
2008-02-25 07:35:38 51°13.665 2°55.956 127.4 -999 153 6
2008-02-25 07:35:43 51°13.665 2°55.956 127 -999 137 6
2008-02-25 07:35:48 51°13.665 2°55.956 126.9 -999 130 6.1
2008-02-25 07:35:53 51°13.666 2°55.956 126.8 0.1 169 6
2008-02-25 07:35:58 51°13.666 2°55.956 126.8 -999 262 -999
2008-02-25 07:36:03 51°13.666 2°55.956 126.9 -999 326 -999
2008-02-25 07:36:08 51°13.666 2°55.956 127 -999 318 -999
2008-02-25 07:36:13 51°13.666 2°55.956 127 -999 66 6
2008-02-25 07:36:18 51°13.666 2°55.956 127 -999 92 -999
2008-02-25 07:36:23 51°13.666 2°55.956 127 -999 169 6
2008-02-25 07:36:27 51°13.666 2°55.956 126.7 -999 191 6
2008-02-25 07:36:33 51°13.666 2°55.956 126.2 -999 183 6
2008-02-25 07:36:38 51°13.666 2°55.956 125.1 -999 180 6
2008-02-25 07:36:43 51°13.666 2°55.956 124.4 0.1 181 6
2008-02-25 07:36:47 51°13.665 2°55.956 123.7 0.1 210 6
2008-02-25 07:36:53 51°13.665 2°55.956 122.8 -999 237 6
2008-02-25 07:36:58 51°13.665 2°55.955 122 0.1 202 6
2008-02-25 07:37:03 51°13.665 2°55.955 121.1 0.1 196 6
2008-02-25 07:37:08 51°13.665 2°55.955 120.4 0.1 191 6.1
2008-02-25 07:37:13 51°13.665 2°55.955 119.5 0.1 189 6.1
2008-02-25 07:37:18 51°13.665 2°55.955 118.5 0.1 181 6.2
2008-02-25 07:37:23 51°13.664 2°55.955 117.9 0.1 198 6.1
2008-02-25 07:37:28 51°13.664 2°55.955 117.1 0.1 204 6.1
2008-02-25 07:37:33 51°13.664 2°55.955 116.3 0.1 188 -999
2008-02-25 07:37:38 51°13.664 2°55.955 115.3 0.1 209 6.1
2008-02-25 07:37:43 51°13.664 2°55.955 114.6 0.1 197 6.1
2008-02-25 07:37:48 51°13.664 2°55.955 113.9 0.1 194 6.1
2008-02-25 07:37:53 51°13.664 2°55.955 113.1 0.1 198 6.1
2008-02-25 07:37:58 51°13.664 2°55.955 112.3 0.1 199 6.1
2008-02-25 07:38:03 51°13.663 2°55.955 111.2 0.1 189 6.1
2008-02-25 07:38:08 51°13.663 2°55.955 110.3 0.1 200 6.1
2008-02-25 07:38:13 51°13.663 2°55.954 109.5 0.1 268 6.1
2008-02-25 07:38:18 51°13.663 2°55.953 108.5 0.3 273 6.1
2008-02-25 07:38:22 51°13.664 2°55.952 107.6 0.6 286 6.1
2008-02-25 07:38:27 51°13.664 2°55.95 107.3 1.2 283 6.1
2008-02-25 07:38:33 51°13.665 2°55.945 107.3 1.8 288 6
2008-02-25 07:38:38 51°13.666 2°55.941 107.7 2.4 288 6.1
2008-02-25 07:38:42 51°13.667 2°55.936 108.5 2.8 289 -999
2008-02-25 07:38:48 51°13.669 2°55.928 109.4 3.1 291 -999
2008-02-25 07:38:53 51°13.671 2°55.921 110 3.4 291 -999
2008-02-25 07:38:58 51°13.673 2°55.914 110.1 3.7 292 -999
2008-02-25 07:39:03 51°13.675 2°55.906 110.2 4 291 -999
2008-02-25 07:39:08 51°13.677 2°55.897 110 4 291 -999
2008-02-25 07:39:13 51°13.679 2°55.889 109.2 4 290 -999
2008-02-25 07:39:18 51°13.681 2°55.881 108 4.1 291 -999
2008-02-25 07:39:23 51°13.683 2°55.872 106.3 4 288 -999
2008-02-25 07:39:28 51°13.684 2°55.864 104.4 3.9 286 -999
2008-02-25 07:39:33 51°13.685 2°55.856 102.4 3.7 284 -999
2008-02-25 07:39:38 51°13.686 2°55.848 100.6 3.6 284 -999
2008-02-25 07:39:43 51°13.687 2°55.841 99 3.5 282 -999
2008-02-25 07:39:48 51°13.688 2°55.833 97.3 3.4 281 -999
2008-02-25 07:39:53 51°13.689 2°55.826 95.8 3.3 279 -999
2008-02-25 07:39:58 51°13.69 2°55.819 94.5 3.3 279 -999
2008-02-25 07:40:02 51°13.69 2°55.813 93.1 3.3 277 8.9
2008-02-25 07:40:08 51°13.691 2°55.805 92.2 3.3 276 -999
2008-02-25 07:40:13 51°13.691 2°55.798 90.9 3.1 275 -999
2008-02-25 07:40:18 51°13.691 2°55.791 89.3 3 274 -999
2008-02-25 07:40:23 51°13.692 2°55.785 88.4 2.9 274 -999
2008-02-25 07:40:28 51°13.692 2°55.779 87.5 2.7 273 -999
2008-02-25 07:40:33 51°13.692 2°55.773 86.6 2.6 272 -999
2008-02-25 07:40:38 51°13.692 2°55.767 85.6 2.5 271 -999
2008-02-25 07:40:43 51°13.692 2°55.762 84.8 2.5 270 -999
2008-02-25 07:40:48 51°13.692 2°55.757 84.3 2.4 270 11.3
2008-02-25 07:40:53 51°13.692 2°55.752 84.2 2.2 268 11.2
2008-02-25 07:40:58 51°13.692 2°55.748 83.8 1.8 269 11.2
2008-02-25 07:41:02 51°13.692 2°55.745 82.9 1.6 268 11.3
2008-02-25 07:41:07 51°13.692 2°55.742 81.3 1.3 270 11.3
2008-02-25 07:41:13 51°13.692 2°55.739 79.2 0.9 272 11.2
2008-02-25 07:41:18 51°13.692 2°55.738 76.8 0.6 281 11.3
2008-02-25 07:41:22 51°13.692 2°55.738 73.4 0.3 307 11.4
2008-02-25 07:41:27 51°13.692 2°55.737 69.8 0.3 356 11.4
2008-02-25 07:41:33 51°13.693 2°55.738 65.5 0.5 26 11.4
2008-02-25 07:41:38 51°13.694 2°55.739 60.9 0.8 30 11.5
2008-02-25 07:41:42 51°13.694 2°55.74 56.7 1 34 11.5
2008-02-25 07:41:47 51°13.696 2°55.741 51.4 1.2 32 11.6
2008-02-25 07:41:52 51°13.697 2°55.743 46.1 1.5 30 11.8
2008-02-25 07:41:58 51°13.7 2°55.745 39.5 1.7 25 11.9
2008-02-25 07:42:03 51°13.702 2°55.746 34.2 1.8 22 -999
2008-02-25 07:42:08 51°13.705 2°55.747 27.7 2 17 -999
2008-02-25 07:42:13 51°13.708 2°55.749 22.4 2.2 13 12.5
2008-02-25 07:42:18 51°13.712 2°55.749 16 2.6 8 -999
2008-02-25 07:42:22 51°13.715 2°55.75 11.7 2.9 3 12.3
2008-02-25 07:42:28 51°13.72 2°55.749 6.4 3.1 355 12.2
2008-02-25 07:42:33 51°13.725 2°55.748 359.6 3.4 348 12.1
2008-02-25 07:42:38 51°13.73 2°55.745 352.6 3.8 341 11.8
2008-02-25 07:42:42 51°13.734 2°55.742 345.1 4.3 334 11.5
2008-02-25 07:42:47 51°13.74 2°55.736 336.7 5 327 10.6
2008-02-25 07:42:53 51°13.747 2°55.728 330.3 5.6 327 9.6
2008-02-25 07:42:58 51°13.754 2°55.721 327.9 5.5 325 8.7
2008-02-25 07:43:02 51°13.759 2°55.716 326.6 5.4 326 8.5
2008-02-25 07:43:07 51°13.765 2°55.709 326 5.7 324 8.6
2008-02-25 07:43:13 51°13.773 2°55.7 325.4 6 324 8.7
2008-02-25 07:43:18 51°13.78 2°55.691 324.9 6.3 324 8.7
2008-02-25 07:43:22 51°13.786 2°55.685 324.5 6.5 326 8.7
2008-02-25 07:43:27 51°13.794 2°55.677 325.1 6.6 326 8.7
2008-02-25 07:43:33 51°13.803 2°55.668 326.2 6.7 329 8.9
2008-02-25 07:43:38 51°13.812 2°55.66 327.8 6.9 329 9.2
2008-02-25 07:43:42 51°13.818 2°55.653 328.8 7 330 9.5
2008-02-25 07:43:47 51°13.827 2°55.646 329.8 7.1 330 9.3
2008-02-25 07:43:53 51°13.837 2°55.636 330.5 7.2 331 9.7
2008-02-25 07:43:58 51°13.846 2°55.629 331.2 7.3 331 10.1
2008-02-25 07:44:02 51°13.853 2°55.623 331.9 7.3 333 10.4
2008-02-25 07:44:07 51°13.862 2°55.616 333 7.4 333 10.3
2008-02-25 07:44:12 51°13.872 2°55.608 334.1 7.4 334 10.4
2008-02-25 07:44:18 51°13.883 2°55.6 334.8 7.4 334 10.3
2008-02-25 07:44:20 51°13.886 2°55.597 335 2.7 334 10.4
2008-02-25 07:44:27 51°13.899 2°55.587 335 5.8 335 10.5
2008-02-25 07:44:33 51°13.911 2°55.578 335.2 7.8 335 10.5
2008-02-25 07:44:37 51°13.918 2°55.573 335.8 7.6 336 10.8
2008-02-25 07:44:42 51°13.928 2°55.566 336.1 7.6 335 10.6
2008-02-25 07:44:47 51°13.937 2°55.558 335.6 7.6 335 10.7
2008-02-25 07:44:52 51°13.947 2°55.551 335.3 7.6 335 10.7
2008-02-25 07:44:57 51°13.957 2°55.544 335.4 7.6 335 10.8
2008-02-25 07:45:02 51°13.966 2°55.537 335.8 7.5 335 10.5
2008-02-25 07:45:07 51°13.976 2°55.53 336 7.5 335 10.7
2008-02-25 07:45:13 51°13.987 2°55.522 336 7.5 335 10.6
2008-02-25 07:45:18 51°13.996 2°55.515 335.7 7.4 335 10.7
2008-02-25 07:45:22 51°14.004 2°55.51 335.6 7.3 336 10.6
2008-02-25 07:45:28 51°14.014 2°55.502 336 7 336 10.4
2008-02-25 07:45:33 51°14.023 2°55.496 336.3 6.8 336 10.5
2008-02-25 07:45:38 51°14.031 2°55.49 336.3 6.6 336 10.6
2008-02-25 07:45:42 51°14.038 2°55.485 336.3 6.4 336 10.6
2008-02-25 07:45:47 51°14.046 2°55.48 336.3 6.3 336 10.3
2008-02-25 07:45:53 51°14.055 2°55.473 336.4 6.1 336 10.7
2008-02-25 07:45:58 51°14.063 2°55.468 336.3 6 336 10.8
2008-02-25 07:46:02 51°14.069 2°55.464 336.2 5.9 336 10.7
2008-02-25 07:46:07 51°14.076 2°55.458 336.2 5.8 336 10.7
2008-02-25 07:46:13 51°14.085 2°55.452 336 5.8 336 10.7
2008-02-25 07:46:18 51°14.092 2°55.447 335.4 5.8 335 10.7
2008-02-25 07:46:22 51°14.098 2°55.442 335.1 5.8 335 10.7
2008-02-25 07:46:27 51°14.106 2°55.437 335 6 335 10.7
2008-02-25 07:46:33 51°14.115 2°55.43 335.2 6.3 335 -999
2008-02-25 07:46:37 51°14.122 2°55.425 335 6.5 333 10.8
2008-02-25 07:46:42 51°14.13 2°55.418 334.3 6.9 333 10.8
2008-02-25 07:46:47 51°14.139 2°55.411 333.7 7.2 332 10.8
2008-02-25 07:46:53 51°14.15 2°55.401 333.2 7.5 331 10.8
2008-02-25 07:46:58 51°14.159 2°55.392 332.6 7.8 330 10.8
2008-02-25 07:47:02 51°14.166 2°55.385 331.1 8 329 10.8
2008-02-25 07:47:07 51°14.176 2°55.375 329.8 8.3 327 10.8
2008-02-25 07:47:13 51°14.188 2°55.363 328.4 8.5 327 10.8
2008-02-25 07:47:18 51°14.198 2°55.353 327.9 8.7 326 10.9
2008-02-25 07:47:22 51°14.206 2°55.343 327.1 8.8 324 10.9
2008-02-25 07:47:27 51°14.216 2°55.331 325.8 9.1 323 10.8
2008-02-25 07:47:33 51°14.228 2°55.316 324.3 9.3 321 10.9
2008-02-25 07:47:38 51°14.238 2°55.302 322.9 9.6 320 10.9
2008-02-25 07:47:42 51°14.246 2°55.29 321.3 9.8 318 10.9
2008-02-25 07:47:48 51°14.258 2°55.272 319.6 10 316 10.9
2008-02-25 07:47:53 51°14.268 2°55.257 318.1 10.1 316 10.9
2008-02-25 07:47:58 51°14.278 2°55.241 317.4 10.2 315 10.8
2008-02-25 07:48:02 51°14.286 2°55.227 316.4 10.3 312 10.9
2008-02-25 07:48:07 51°14.295 2°55.209 314 10.4 310 11
2008-02-25 07:48:13 51°14.305 2°55.187 310.7 10.6 307 10.9
2008-02-25 07:48:18 51°14.314 2°55.168 308.7 10.6 307 10.9
2008-02-25 07:48:22 51°14.321 2°55.153 307.8 10.7 307 10.9
2008-02-25 07:48:27 51°14.33 2°55.134 307.6 10.7 307 10.9
2008-02-25 07:48:32 51°14.339 2°55.115 307.3 10.8 305 10.7
2008-02-25 07:48:38 51°14.349 2°55.091 306.2 10.9 304 10.4
2008-02-25 07:48:42 51°14.355 2°55.075 305.5 11 303 10.3
2008-02-25 07:48:47 51°14.364 2°55.054 304.6 11.1 302 10.7
2008-02-25 07:48:52 51°14.372 2°55.032 303.2 11.3 300 10.4
2008-02-25 07:48:58 51°14.381 2°55.006 301.8 11.6 300 9.7
2008-02-25 07:49:03 51°14.389 2°54.983 301.1 11.8 300 9.4
2008-02-25 07:49:07 51°14.396 2°54.965 300.4 12 300 9.5
2008-02-25 07:49:13 51°14.407 2°54.938 300.7 12.1 305 9.7
2008-02-25 07:49:18 51°14.418 2°54.917 304.1 12.2 309 9.8
2008-02-25 07:49:22 51°14.427 2°54.901 309 12.3 314 9.9
2008-02-25 07:49:27 51°14.44 2°54.883 314.9 12.4 317 10
2008-02-25 07:49:33 51°14.455 2°54.86 319.1 12.5 318 10
2008-02-25 07:49:37 51°14.466 2°54.846 320.9 12.6 320 9.9
2008-02-25 07:49:42 51°14.479 2°54.828 322.7 12.7 320 9.9
2008-02-25 07:49:48 51°14.496 2°54.806 324.3 12.7 320 9.8
2008-02-25 07:49:53 51°14.509 2°54.788 325.8 12.8 319 10
2008-02-25 07:49:58 51°14.523 2°54.77 325.8 12.7 320 9.6
2008-02-25 07:50:02 51°14.534 2°54.755 326 12.7 320 9.4
2008-02-25 07:50:07 51°14.547 2°54.737 326.5 12.7 320 9.2
2008-02-25 07:50:13 51°14.564 2°54.716 326.4 12.7 322 9.2
2008-02-25 07:50:18 51°14.577 2°54.699 327.7 12.7 322 9.1
2008-02-25 07:50:22 51°14.588 2°54.685 328.3 12.7 322 9.1
2008-02-25 07:50:27 51°14.602 2°54.669 328.7 12.6 323 9.1
2008-02-25 07:50:33 51°14.619 2°54.648 329.3 12.7 322 9
2008-02-25 07:50:38 51°14.633 2°54.631 329.2 12.7 323 9
2008-02-25 07:50:42 51°14.644 2°54.618 329.2 12.6 323 9
2008-02-25 07:50:47 51°14.659 2°54.602 329.6 12.7 324 9
2008-02-25 07:50:52 51°14.672 2°54.584 329.5 12.6 323 8.9
2008-02-25 07:50:58 51°14.689 2°54.565 329 12.6 324 9
2008-02-25 07:51:02 51°14.701 2°54.552 329.7 12.7 324 9.1
2008-02-25 07:51:07 51°14.715 2°54.535 330.2 12.6 325 9
2008-02-25 07:51:13 51°14.732 2°54.516 330.9 12.6 325 9.1
2008-02-25 07:51:18 51°14.746 2°54.5 331.1 12.6 325 9.1
2008-02-25 07:51:22 51°14.758 2°54.488 331.2 12.6 325 9.2
2008-02-25 07:51:27 51°14.772 2°54.471 331.3 12.6 324 9
2008-02-25 07:51:33 51°14.789 2°54.452 331 12.6 325 9.1
2008-02-25 07:51:37 51°14.8 2°54.439 330.9 12.6 324 8.9
2008-02-25 07:51:42 51°14.815 2°54.423 330.7 12.6 325 9.3
2008-02-25 07:51:47 51°14.829 2°54.407 330.8 12.5 325 8.6
2008-02-25 07:51:52 51°14.843 2°54.392 331.1 12.5 326 9.1
2008-02-25 07:51:58 51°14.861 2°54.373 331.3 12.5 325 9
2008-02-25 07:52:02 51°14.872 2°54.36 331.3 12.6 325 8.9
2008-02-25 07:52:07 51°14.886 2°54.345 330.9 12.6 326 8.7
2008-02-25 07:52:13 51°14.903 2°54.326 330.9 12.5 325 8.4
2008-02-25 07:52:18 51°14.918 2°54.311 331.2 12.4 327 8.3
2008-02-25 07:52:22 51°14.929 2°54.298 331.8 12.3 325 8.2
2008-02-25 07:52:27 51°14.943 2°54.283 331.5 12.3 326 8.2
2008-02-25 07:52:33 51°14.96 2°54.265 331.2 12.3 325 8
2008-02-25 07:52:38 51°14.974 2°54.25 330.9 12.2 328 7.9
2008-02-25 07:52:42 51°14.986 2°54.239 332.3 12.3 328 7.9
2008-02-25 07:52:47 51°15 2°54.224 333 12.2 328 7.9
2008-02-25 07:52:52 51°15.015 2°54.211 334.1 12.2 330 7.9
2008-02-25 07:52:57 51°15.03 2°54.197 334.5 12.2 329 7.8
2008-02-25 07:53:02 51°15.044 2°54.184 335 12.2 330 7.9
2008-02-25 07:53:07 51°15.059 2°54.17 335.1 12.2 329 7.9
2008-02-25 07:53:12 51°15.073 2°54.156 335 12.3 329 8
2008-02-25 07:53:17 51°15.088 2°54.142 334.8 12.3 330 8.1
2008-02-25 07:53:22 51°15.103 2°54.128 334.8 12.4 329 8.1
2008-02-25 07:53:27 51°15.118 2°54.114 334.9 12.4 329 8.2
2008-02-25 07:53:32 51°15.133 2°54.1 334.9 12.4 329 8.2
2008-02-25 07:53:37 51°15.147 2°54.086 334.8 12.4 329 8.2
2008-02-25 07:53:42 51°15.162 2°54.072 334.8 12.4 329 8.3
2008-02-25 07:53:47 51°15.177 2°54.058 334.5 12.4 330 8.3
2008-02-25 07:53:52 51°15.192 2°54.044 334.8 12.4 330 8.4
2008-02-25 07:53:57 51°15.207 2°54.03 335.2 12.4 330 8.4
2008-02-25 07:54:02 51°15.222 2°54.016 335.3 12.4 330 8.5
2008-02-25 07:54:07 51°15.237 2°54.003 335.4 12.4 331 8.5
2008-02-25 07:54:12 51°15.252 2°53.989 335.7 12.4 329 8.6
2008-02-25 07:54:17 51°15.267 2°53.975 335.7 12.4 330 8.6
2008-02-25 07:54:22 51°15.282 2°53.961 335.4 12.5 330 8.6
2008-02-25 07:54:27 51°15.297 2°53.948 335.2 12.4 332 8.6
2008-02-25 07:54:32 51°15.312 2°53.935 336.7 12.5 331 8.8
2008-02-25 07:54:36 51°15.324 2°53.925 337.3 12.5 333 8.9
2008-02-25 07:54:42 51°15.343 2°53.91 338.5 12.5 333 8.8
2008-02-25 07:54:47 51°15.359 2°53.899 339.3 12.4 336 8.9
2008-02-25 07:54:52 51°15.374 2°53.887 340.3 12.4 334 9
2008-02-25 07:54:57 51°15.39 2°53.876 340.9 12.4 336 9.2
2008-02-25 07:55:02 51°15.405 2°53.864 341.4 12.4 335 9.1
2008-02-25 07:55:07 51°15.421 2°53.852 341.4 12.5 333 9.1
2008-02-25 07:55:12 51°15.436 2°53.839 340.3 12.5 333 9.2
2008-02-25 07:55:17 51°15.451 2°53.825 339.2 12.5 331 9.3
2008-02-25 07:55:22 51°15.466 2°53.812 338.1 12.4 331 9.3
2008-02-25 07:55:27 51°15.481 2°53.798 337.4 12.5 330 9.4
2008-02-25 07:55:32 51°15.496 2°53.784 336.9 12.5 330 9.4
2008-02-25 07:55:37 51°15.511 2°53.77 336.6 12.6 330 9.5
2008-02-25 07:55:42 51°15.526 2°53.756 336.6 12.5 330 9.4
2008-02-25 07:55:47 51°15.542 2°53.743 336.7 12.5 331 9.7
2008-02-25 07:55:52 51°15.557 2°53.729 337.7 12.5 330 9.6
2008-02-25 07:55:57 51°15.572 2°53.715 337.7 12.6 330 9.6
2008-02-25 07:56:02 51°15.587 2°53.702 337.6 12.6 331 9.6
2008-02-25 07:56:07 51°15.602 2°53.688 338.1 12.6 331 9.6
2008-02-25 07:56:12 51°15.618 2°53.675 338.7 12.5 332 9.7
2008-02-25 07:56:17 51°15.633 2°53.662 339.4 12.6 331 9.7
2008-02-25 07:56:22 51°15.648 2°53.649 339.4 12.6 332 9.8
2008-02-25 07:56:27 51°15.664 2°53.636 339.6 12.6 332 9.9
2008-02-25 07:56:32 51°15.679 2°53.623 339.6 12.6 332 9.9
2008-02-25 07:56:37 51°15.695 2°53.61 339.3 12.6 332 10
2008-02-25 07:56:42 51°15.71 2°53.596 339.5 12.6 332 10
2008-02-25 07:56:47 51°15.725 2°53.583 339.2 12.6 331 9.9
2008-02-25 07:56:52 51°15.741 2°53.57 338.9 12.6 332 10.1
2008-02-25 07:56:57 51°15.756 2°53.556 339.3 12.6 331 10
2008-02-25 07:57:02 51°15.771 2°53.543 339.2 12.6 331 10.2
2008-02-25 07:57:07 51°15.787 2°53.53 338.9 12.6 332 10.2
2008-02-25 07:57:12 51°15.802 2°53.516 339.2 12.6 331 10.2
2008-02-25 07:57:17 51°15.817 2°53.503 338.9 12.7 331 10.3
2008-02-25 07:57:22 51°15.833 2°53.489 338.8 12.7 331 10.3
2008-02-25 07:57:27 51°15.848 2°53.476 338.9 12.7 332 10.3
2008-02-25 07:57:32 51°15.864 2°53.463 339.5 12.6 332 10.3
2008-02-25 07:57:37 51°15.879 2°53.45 339.5 12.6 332 10.4
2008-02-25 07:57:42 51°15.895 2°53.436 339.6 12.6 331 10.4
2008-02-25 07:57:47 51°15.91 2°53.423 339.2 12.7 331 10.5
2008-02-25 07:57:52 51°15.925 2°53.409 338.5 12.7 330 10.5
2008-02-25 07:57:57 51°15.941 2°53.396 338.2 12.6 331 10.5
2008-02-25 07:58:02 51°15.956 2°53.382 338.4 12.7 331 10.6
2008-02-25 07:58:07 51°15.972 2°53.369 338.4 12.7 330 10.6
2008-02-25 07:58:12 51°15.987 2°53.355 337.5 12.6 330 10.6
2008-02-25 07:58:17 51°16.002 2°53.341 337.4 12.6 331 10.6
2008-02-25 07:58:22 51°16.017 2°53.327 337.6 12.6 330 10.6
2008-02-25 07:58:27 51°16.032 2°53.313 337.4 12.6 330 10.6
2008-02-25 07:58:32 51°16.047 2°53.299 337.4 12.7 330 10.7
2008-02-25 07:58:37 51°16.063 2°53.285 337.4 12.6 331 10.7
2008-02-25 07:58:42 51°16.078 2°53.272 337.5 12.6 330 10.8
2008-02-25 07:58:47 51°16.094 2°53.259 337.6 12.6 332 10.7
2008-02-25 07:58:52 51°16.109 2°53.246 338.9 12.6 332 10.8
2008-02-25 07:58:57 51°16.125 2°53.233 339.2 12.6 333 10.7
2008-02-25 07:59:02 51°16.14 2°53.221 339.8 12.6 334 10.7
2008-02-25 07:59:07 51°16.156 2°53.208 340.9 12.6 334 10.7
2008-02-25 07:59:12 51°16.172 2°53.197 341 12.6 335 10.8
2008-02-25 07:59:17 51°16.188 2°53.184 341.5 12.6 334 10.8
2008-02-25 07:59:22 51°16.203 2°53.172 341.4 12.6 334 10.8
2008-02-25 07:59:27 51°16.219 2°53.16 341.1 12.6 334 10.8
2008-02-25 07:59:32 51°16.235 2°53.148 341 12.6 333 10.8
2008-02-25 07:59:37 51°16.25 2°53.135 340.6 12.6 333 10.8
2008-02-25 07:59:42 51°16.266 2°53.122 340.3 12.6 333 10.8
2008-02-25 07:59:47 51°16.282 2°53.11 339.8 12.6 333 10.9
2008-02-25 07:59:52 51°16.297 2°53.097 339.5 12.6 333 10.9
2008-02-25 07:59:57 51°16.313 2°53.084 339.5 12.6 333 10.9
2008-02-25 08:00:02 51°16.328 2°53.072 339.4 12.6 333 10.8
2008-02-25 08:00:07 51°16.344 2°53.06 339.6 12.6 334 10.9
2008-02-25 08:00:12 51°16.36 2°53.047 339.8 12.6 334 10.9
2008-02-25 08:00:17 51°16.375 2°53.035 340 12.6 334 10.9
2008-02-25 08:00:22 51°16.391 2°53.023 340.5 12.6 335 10.9
2008-02-25 08:00:27 51°16.407 2°53.011 341 12.6 335 10.9
2008-02-25 08:00:32 51°16.423 2°53 341.4 12.6 335 10.9
2008-02-25 08:00:37 51°16.439 2°52.988 341.6 12.6 334 10.9
2008-02-25 08:00:42 51°16.454 2°52.976 341.3 12.6 334 10.9
2008-02-25 08:00:47 51°16.47 2°52.963 340.9 12.6 334 10.9
2008-02-25 08:00:52 51°16.485 2°52.951 340.6 12.6 334 10.9
2008-02-25 08:00:57 51°16.501 2°52.939 340.5 12.6 334 10.8
2008-02-25 08:01:02 51°16.517 2°52.926 340.3 12.6 334 11
2008-02-25 08:01:07 51°16.532 2°52.914 340.2 12.6 335 10.7
2008-02-25 08:01:12 51°16.548 2°52.902 340.7 12.6 334 10.7
2008-02-25 08:01:17 51°16.564 2°52.891 340.8 12.6 335 10.8
2008-02-25 08:01:22 51°16.58 2°52.879 341.3 12.6 335 10.7
2008-02-25 08:01:27 51°16.595 2°52.867 341.3 12.5 335 10.7
2008-02-25 08:01:32 51°16.611 2°52.856 341.5 12.6 335 10.6
2008-02-25 08:01:37 51°16.627 2°52.844 341.5 12.6 334 10.6
2008-02-25 08:01:42 51°16.642 2°52.831 340.8 12.6 333 10.6
2008-02-25 08:01:47 51°16.658 2°52.819 339.9 12.6 334 10.5
2008-02-25 08:01:52 51°16.674 2°52.806 339.7 12.6 333 10.2
2008-02-25 08:01:57 51°16.689 2°52.794 339.4 12.5 333 10.1
2008-02-25 08:02:02 51°16.705 2°52.781 339.2 12.5 333 10
2008-02-25 08:02:07 51°16.72 2°52.769 339.1 12.5 334 10
2008-02-25 08:02:12 51°16.736 2°52.757 339.4 12.5 334 9.8
2008-02-25 08:02:17 51°16.752 2°52.745 339.6 12.4 334 9.4
2008-02-25 08:02:22 51°16.767 2°52.733 339.9 12.4 335 9
2008-02-25 08:02:27 51°16.783 2°52.722 340.2 12.4 334 8.8
2008-02-25 08:02:32 51°16.798 2°52.71 340 12.3 335 8.9
2008-02-25 08:02:37 51°16.814 2°52.699 340.3 12.3 336 8.9
2008-02-25 08:02:42 51°16.829 2°52.688 341.4 12.4 336 8.8
2008-02-25 08:02:47 51°16.845 2°52.677 341.4 12.4 337 8.6
2008-02-25 08:02:52 51°16.861 2°52.666 341.6 12.4 336 8.5
2008-02-25 08:02:57 51°16.876 2°52.655 341.6 12.3 336 8.5
2008-02-25 08:03:02 51°16.892 2°52.643 341.5 12.4 336 8.7
2008-02-25 08:03:07 51°16.908 2°52.632 341.4 12.4 336 8.7
2008-02-25 08:03:12 51°16.924 2°52.621 341.3 12.4 337 9
2008-02-25 08:03:17 51°16.939 2°52.61 341.7 12.4 336 8.9
2008-02-25 08:03:22 51°16.955 2°52.599 342.1 12.5 337 8.9
2008-02-25 08:03:27 51°16.971 2°52.588 342.1 12.5 336 9.1
2008-02-25 08:03:32 51°16.987 2°52.577 341.7 12.5 336 9.1
2008-02-25 08:03:37 51°17.003 2°52.566 341.5 12.5 336 9
2008-02-25 08:03:42 51°17.019 2°52.554 341.2 12.5 336 8.8
2008-02-25 08:03:47 51°17.034 2°52.543 341.3 12.4 335 8.9
2008-02-25 08:03:52 51°17.05 2°52.532 341.1 12.4 335 8.6
2008-02-25 08:03:57 51°17.065 2°52.519 340.9 12.4 333 8.7
2008-02-25 08:04:02 51°17.081 2°52.507 339.7 12.4 334 8.7
2008-02-25 08:04:07 51°17.096 2°52.494 339 12.4 333 8.8
2008-02-25 08:04:12 51°17.112 2°52.482 338.4 12.5 333 9.1
2008-02-25 08:04:17 51°17.127 2°52.469 338.4 12.5 333 9
2008-02-25 08:04:22 51°17.143 2°52.457 338.4 12.4 334 8.9
2008-02-25 08:04:27 51°17.158 2°52.445 338.8 12.5 334 9.1
2008-02-25 08:04:32 51°17.174 2°52.433 338.9 12.5 334 9.2
2008-02-25 08:04:37 51°17.189 2°52.421 339.1 12.5 333 9.1
2008-02-25 08:04:42 51°17.205 2°52.409 338.9 12.5 334 9
2008-02-25 08:04:47 51°17.22 2°52.396 338.9 12.5 334 9.2
2008-02-25 08:04:52 51°17.236 2°52.384 338.9 12.5 334 9.3
2008-02-25 08:04:57 51°17.252 2°52.372 339 12.5 334 9.2
2008-02-25 08:05:02 51°17.267 2°52.36 339.2 12.5 335 9.4
2008-02-25 08:05:07 51°17.283 2°52.348 339.6 12.5 335 9.4
2008-02-25 08:05:12 51°17.299 2°52.337 339.9 12.6 335 9.6
2008-02-25 08:05:17 51°17.314 2°52.324 340.1 12.5 333 9.6
2008-02-25 08:05:22 51°17.329 2°52.311 339.9 12.5 331 9.5
2008-02-25 08:05:27 51°17.343 2°52.294 335.9 12.6 323 9.5
2008-02-25 08:05:32 51°17.358 2°52.278 331 12.5 326 9.5
2008-02-25 08:05:37 51°17.372 2°52.261 330.2 12.6 323 9.5
2008-02-25 08:05:42 51°17.385 2°52.244 328.4 12.6 321 9.7
2008-02-25 08:05:47 51°17.399 2°52.226 327.5 12.6 320 9.6
2008-02-25 08:05:52 51°17.411 2°52.206 325.1 12.7 313 9.4
2008-02-25 08:05:58 51°17.425 2°52.181 320.5 12.7 312 9.6
2008-02-25 08:06:02 51°17.435 2°52.164 318 12.7 313 9.4
2008-02-25 08:06:07 51°17.445 2°52.142 317.6 12.8 308 9.7
2008-02-25 08:06:12 51°17.457 2°52.12 315.6 12.6 310 9.5
2008-02-25 08:06:17 51°17.466 2°52.097 314.3 12.7 302 9.5
2008-02-25 08:06:22 51°17.475 2°52.071 308.6 12.9 298 9.5
2008-02-25 08:06:27 51°17.483 2°52.047 304.3 12.8 299 9.4
2008-02-25 08:06:32 51°17.492 2°52.022 303.3 12.9 298 9.3
2008-02-25 08:06:37 51°17.499 2°51.996 302.1 12.9 295 9.5
2008-02-25 08:06:42 51°17.507 2°51.97 300.7 12.9 296 9.6
2008-02-25 08:06:47 51°17.514 2°51.944 300.2 13 294 9.4
2008-02-25 08:06:52 51°17.522 2°51.918 299.1 12.9 296 9.6
2008-02-25 08:06:57 51°17.531 2°51.893 300.1 12.9 297 9.6
2008-02-25 08:07:02 51°17.539 2°51.868 301.1 13 299 9.5
2008-02-25 08:07:07 51°17.548 2°51.843 302.4 12.9 299 9.3
2008-02-25 08:07:12 51°17.556 2°51.818 303.2 12.9 299 9.4
2008-02-25 08:07:17 51°17.565 2°51.793 303.9 12.9 300 9.2
2008-02-25 08:07:22 51°17.575 2°51.768 304.2 12.9 301 9.3
2008-02-25 08:07:27 51°17.584 2°51.744 305 12.9 300 9.3
2008-02-25 08:07:32 51°17.593 2°51.719 305 12.9 300 9.3
2008-02-25 08:07:37 51°17.602 2°51.694 304.9 12.9 300 9.1
2008-02-25 08:07:42 51°17.611 2°51.669 304.9 12.9 300 8.9
2008-02-25 08:07:47 51°17.62 2°51.645 304.9 12.9 300 9
2008-02-25 08:07:52 51°17.629 2°51.62 304.9 12.9 300 8.8
2008-02-25 08:07:57 51°17.637 2°51.595 304.8 13 298 8.8
2008-02-25 08:08:02 51°17.646 2°51.57 303.7 13 298 8.8
2008-02-25 08:08:07 51°17.654 2°51.544 302.6 12.9 296 8.8
2008-02-25 08:08:12 51°17.661 2°51.518 301.1 13 295 8.9
2008-02-25 08:08:17 51°17.669 2°51.492 300.3 13 296 9.1
2008-02-25 08:08:22 51°17.677 2°51.466 299.9 13 295 9
2008-02-25 08:08:27 51°17.685 2°51.44 299.3 13 296 8.8
2008-02-25 08:08:32 51°17.692 2°51.414 299.3 13 295 8.9
2008-02-25 08:08:37 51°17.7 2°51.388 299.5 13 296 8.7
2008-02-25 08:08:42 51°17.708 2°51.362 299.5 13 296 8.8
2008-02-25 08:08:47 51°17.716 2°51.336 299.7 13 296 9.1
2008-02-25 08:08:52 51°17.723 2°51.31 299.8 13.1 295 9.1
2008-02-25 08:08:57 51°17.731 2°51.284 299.7 13.1 296 9.2
2008-02-25 08:09:02 51°17.739 2°51.258 300.2 13.1 296 9
2008-02-25 08:09:07 51°17.747 2°51.232 300.2 13.1 296 9.2
2008-02-25 08:09:12 51°17.755 2°51.206 300.1 13.1 296 9.1
2008-02-25 08:09:17 51°17.763 2°51.18 300.2 13.1 296 9.4
2008-02-25 08:09:22 51°17.772 2°51.154 300.4 13.1 297 9.3
2008-02-25 08:09:27 51°17.78 2°51.128 300.7 13.1 297 9.5
2008-02-25 08:09:32 51°17.788 2°51.102 300.9 13.1 297 9.4
2008-02-25 08:09:37 51°17.796 2°51.076 300.9 13.2 296 9.4
2008-02-25 08:09:42 51°17.804 2°51.049 300.9 13.2 297 10
2008-02-25 08:09:47 51°17.812 2°51.023 300.6 13.2 297 9.8
2008-02-25 08:09:52 51°17.82 2°50.997 300.7 13.2 297 10.1
2008-02-25 08:09:57 51°17.829 2°50.971 301 13.2 297 10.3
2008-02-25 08:10:02 51°17.837 2°50.945 301.2 13.3 298 10.4
2008-02-25 08:10:07 51°17.846 2°50.919 301.9 13.3 298 10.4
2008-02-25 08:10:12 51°17.855 2°50.893 302.3 13.2 299 10.7
2008-02-25 08:10:17 51°17.863 2°50.868 302.8 13.3 298 10.8
2008-02-25 08:10:22 51°17.872 2°50.842 303 13.3 299 10.9
2008-02-25 08:10:27 51°17.881 2°50.816 303.1 13.3 299 11
2008-02-25 08:10:32 51°17.889 2°50.79 303 13.3 297 11.1
2008-02-25 08:10:37 51°17.898 2°50.764 302.2 13.3 297 11.3
2008-02-25 08:10:42 51°17.906 2°50.738 301.8 13.3 296 11.2
2008-02-25 08:10:47 51°17.915 2°50.711 301.5 13.3 297 11.3
2008-02-25 08:10:52 51°17.923 2°50.685 301.1 13.3 296 11.5
2008-02-25 08:10:57 51°17.931 2°50.658 301.1 13.3 297 11.6
2008-02-25 08:11:02 51°17.94 2°50.632 301.1 13.3 298 11.6
2008-02-25 08:11:07 51°17.948 2°50.606 301.9 13.3 297 11.6
2008-02-25 08:11:12 51°17.956 2°50.58 301.7 13.4 297 11.9
2008-02-25 08:11:17 51°17.964 2°50.553 301.5 13.3 297 11.7
2008-02-25 08:11:22 51°17.973 2°50.527 301.6 13.3 297 12
2008-02-25 08:11:27 51°17.981 2°50.501 301.8 13.4 297 12
2008-02-25 08:11:32 51°17.99 2°50.474 301.8 13.4 297 12
2008-02-25 08:11:37 51°17.998 2°50.448 301.8 13.4 298 12.2
2008-02-25 08:11:42 51°18.007 2°50.421 302.2 13.4 297 12.3
2008-02-25 08:11:47 51°18.015 2°50.395 302.4 13.4 298 12.3
2008-02-25 08:11:52 51°18.024 2°50.369 302.5 13.4 296 12.4
2008-02-25 08:11:58 51°18.033 2°50.337 301.9 13.4 297 12.6
2008-02-25 08:12:02 51°18.04 2°50.315 301.6 13.4 296 12.6
2008-02-25 08:12:07 51°18.048 2°50.289 301.4 13.4 296 12.6
2008-02-25 08:12:12 51°18.057 2°50.262 301.4 13.4 297 12.8
2008-02-25 08:12:17 51°18.065 2°50.235 301.8 13.4 297 12.7
2008-02-25 08:12:22 51°18.074 2°50.209 301.8 13.4 297 12.8
2008-02-25 08:12:28 51°18.084 2°50.177 302 13.4 297 12.9
2008-02-25 08:12:32 51°18.09 2°50.156 302.2 13.5 297 12.9
2008-02-25 08:12:38 51°18.101 2°50.124 302.1 13.5 297 12.9
2008-02-25 08:12:42 51°18.108 2°50.103 301.9 13.5 297 12.9
2008-02-25 08:12:47 51°18.116 2°50.076 302.1 13.5 296 12.9
2008-02-25 08:12:52 51°18.124 2°50.049 301.8 13.5 296 13
2008-02-25 08:12:58 51°18.134 2°50.018 301.6 13.4 296 13
2008-02-25 08:13:02 51°18.14 2°49.996 301.6 13.4 294 13.1
2008-02-25 08:13:07 51°18.146 2°49.967 299 13.5 289 13
2008-02-25 08:13:12 51°18.153 2°49.94 295.4 13.5 292 13.1
2008-02-25 08:13:18 51°18.16 2°49.905 295.1 13.6 288 13.2
2008-02-25 08:13:22 51°18.165 2°49.883 293.4 13.5 288 13
2008-02-25 08:13:28 51°18.171 2°49.848 292.4 13.5 288 13
2008-02-25 08:13:32 51°18.176 2°49.826 292.1 13.5 287 13.1
2008-02-25 08:13:37 51°18.182 2°49.798 291.1 13.4 289 12.9
2008-02-25 08:13:42 51°18.187 2°49.769 291.5 13.5 287 12.9
2008-02-25 08:13:47 51°18.193 2°49.741 291.3 13.5 288 12.8
2008-02-25 08:13:52 51°18.199 2°49.712 291.5 13.4 288 12.8
2008-02-25 08:13:58 51°18.206 2°49.679 291.7 13.4 288 12.8
2008-02-25 08:14:02 51°18.211 2°49.656 292.1 13.4 289 12.6
2008-02-25 08:14:07 51°18.216 2°49.628 292.4 13.4 289 12.4
2008-02-25 08:14:12 51°18.222 2°49.6 292.5 13.4 288 12.3
2008-02-25 08:14:17 51°18.228 2°49.572 292.4 13.4 288 12.4
2008-02-25 08:14:22 51°18.234 2°49.543 292.2 13.4 288 12.1
2008-02-25 08:14:27 51°18.24 2°49.515 292 13.4 289 12.1
2008-02-25 08:14:32 51°18.246 2°49.487 292 13.4 288 11.8
2008-02-25 08:14:38 51°18.253 2°49.454 292 13.4 290 11.7
2008-02-25 08:14:42 51°18.258 2°49.431 293.1 13.4 289 11.1
2008-02-25 08:14:47 51°18.264 2°49.403 293.4 13.3 290 10.4
2008-02-25 08:14:52 51°18.27 2°49.375 293.6 13.4 288 10.4
2008-02-25 08:14:58 51°18.278 2°49.342 293.1 13.4 290 10.5
2008-02-25 08:15:02 51°18.282 2°49.319 293.1 13.4 289 10.8
2008-02-25 08:15:07 51°18.289 2°49.291 293.3 13.5 290 10.6
2008-02-25 08:15:12 51°18.295 2°49.263 293.7 13.5 290 10.5
2008-02-25 08:15:17 51°18.302 2°49.235 293.8 13.5 290 10.3
2008-02-25 08:15:22 51°18.308 2°49.207 293.9 13.4 291 10.1
2008-02-25 08:15:27 51°18.314 2°49.179 294.2 13.4 289 9.9
2008-02-25 08:15:32 51°18.321 2°49.151 293.7 13.4 290 9.8
2008-02-25 08:15:37 51°18.327 2°49.123 293.7 13.4 290 9.4
2008-02-25 08:15:42 51°18.333 2°49.095 293.6 13.4 289 9.4
2008-02-25 08:15:47 51°18.339 2°49.067 292.8 13.4 288 9
2008-02-25 08:15:52 51°18.345 2°49.039 292.1 13.4 288 9.2
2008-02-25 08:15:58 51°18.352 2°49.005 291.7 13.4 288 9.3
2008-02-25 08:16:02 51°18.356 2°48.983 291.7 13.5 288 9.6
2008-02-25 08:16:07 51°18.362 2°48.954 291.7 13.5 289 9.5
2008-02-25 08:16:12 51°18.368 2°48.926 291.8 13.5 289 9.6
2008-02-25 08:16:17 51°18.374 2°48.898 291.9 13.6 288 9.7
2008-02-25 08:16:22 51°18.38 2°48.869 291.8 13.6 288 9.5
2008-02-25 08:16:27 51°18.387 2°48.841 291.7 13.5 289 9.4
2008-02-25 08:16:32 51°18.393 2°48.813 292.3 13.5 289 9.2
2008-02-25 08:16:37 51°18.399 2°48.785 292.4 13.5 289 9.1
2008-02-25 08:16:42 51°18.405 2°48.756 292.4 13.4 290 9.2
2008-02-25 08:16:47 51°18.411 2°48.728 292.7 13.5 289 9.5
2008-02-25 08:16:52 51°18.417 2°48.7 292.3 13.5 289 9.7
2008-02-25 08:16:57 51°18.424 2°48.671 292.5 13.6 289 9.8
2008-02-25 08:17:02 51°18.43 2°48.643 292.4 13.6 289 10
2008-02-25 08:17:07 51°18.436 2°48.615 292.4 13.6 290 10
2008-02-25 08:17:12 51°18.443 2°48.586 292.7 13.6 289 9.7
2008-02-25 08:17:17 51°18.449 2°48.558 292.6 13.6 291 9.5
2008-02-25 08:17:22 51°18.456 2°48.53 293.9 13.5 290 8.9
2008-02-25 08:17:27 51°18.462 2°48.502 294 13.4 291 8.9
2008-02-25 08:17:32 51°18.469 2°48.475 294.3 13.5 291 9.9
2008-02-25 08:17:37 51°18.476 2°48.447 294.8 13.6 291 10
2008-02-25 08:17:42 51°18.483 2°48.419 294.7 13.6 292 10.1
2008-02-25 08:17:47 51°18.49 2°48.39 294.9 13.7 291 10.6
2008-02-25 08:17:52 51°18.497 2°48.362 294.7 13.7 290 10.5
2008-02-25 08:17:57 51°18.503 2°48.333 294.3 13.7 290 10.7
2008-02-25 08:18:02 51°18.509 2°48.304 293.7 13.7 286 10.6
2008-02-25 08:18:07 51°18.514 2°48.275 290.9 13.7 287 11.1
2008-02-25 08:18:12 51°18.519 2°48.246 290.1 13.7 284 11.4
2008-02-25 08:18:17 51°18.524 2°48.217 288.5 13.7 286 11.6
2008-02-25 08:18:22 51°18.529 2°48.188 288 13.7 284 11.9
2008-02-25 08:18:27 51°18.534 2°48.158 287.7 13.7 285 12.1
2008-02-25 08:18:32 51°18.539 2°48.129 287.3 13.7 285 12.3
2008-02-25 08:18:37 51°18.543 2°48.1 287.5 13.7 285 12.4
2008-02-25 08:18:42 51°18.549 2°48.071 287.7 13.7 285 12.6
2008-02-25 08:18:47 51°18.553 2°48.042 287.7 13.7 285 12.7
2008-02-25 08:18:52 51°18.559 2°48.013 287.9 13.6 286 12.8
2008-02-25 08:18:57 51°18.564 2°47.984 288.5 13.6 287 13
2008-02-25 08:19:02 51°18.569 2°47.955 289.4 13.6 287 13.2
2008-02-25 08:19:07 51°18.575 2°47.926 289.8 13.6 288 13.4
2008-02-25 08:19:12 51°18.581 2°47.897 290.3 13.6 288 13.4
2008-02-25 08:19:17 51°18.587 2°47.869 291.2 13.6 288 13.5
2008-02-25 08:19:22 51°18.592 2°47.84 290.9 13.6 287 13.5
2008-02-25 08:19:27 51°18.598 2°47.811 290.7 13.6 287 13.8
2008-02-25 08:19:32 51°18.603 2°47.782 290.4 13.6 286 13.9
2008-02-25 08:19:37 51°18.609 2°47.753 289.6 13.6 286 13.9
2008-02-25 08:19:42 51°18.614 2°47.724 289.6 13.6 286 14.2
2008-02-25 08:19:47 51°18.619 2°47.695 289.6 13.6 287 14.4
2008-02-25 08:19:52 51°18.625 2°47.666 289.7 13.6 287 14.8
2008-02-25 08:19:57 51°18.63 2°47.637 290 13.6 286 15.1
2008-02-25 08:20:02 51°18.635 2°47.609 289.7 13.7 287 15.5
2008-02-25 08:20:07 51°18.641 2°47.579 290.1 13.7 287 15.8
2008-02-25 08:20:12 51°18.646 2°47.551 290.2 13.6 287 15.9
2008-02-25 08:20:17 51°18.652 2°47.522 290.5 13.6 287 16.3
2008-02-25 08:20:22 51°18.657 2°47.493 290.3 13.6 287 16.3
2008-02-25 08:20:27 51°18.663 2°47.464 290.5 13.6 286 16.6
2008-02-25 08:20:32 51°18.668 2°47.435 290.2 13.6 286 16.6
2008-02-25 08:20:37 51°18.673 2°47.406 290.2 13.6 286 16.7
2008-02-25 08:20:42 51°18.678 2°47.377 289.8 13.6 285 16.7
2008-02-25 08:20:47 51°18.684 2°47.348 289.6 13.6 286 16.9
2008-02-25 08:20:52 51°18.689 2°47.319 289.8 13.6 286 16.9
2008-02-25 08:20:57 51°18.694 2°47.29 289.9 13.6 286 17
2008-02-25 08:21:02 51°18.699 2°47.262 290 13.6 286 17
2008-02-25 08:21:07 51°18.704 2°47.232 290.2 13.6 286 17.2
2008-02-25 08:21:12 51°18.71 2°47.204 290.2 13.6 287 17.2
2008-02-25 08:21:17 51°18.715 2°47.175 290.3 13.6 286 17.3
2008-02-25 08:21:22 51°18.72 2°47.146 290.7 13.6 286 17.5
2008-02-25 08:21:27 51°18.725 2°47.117 290.4 13.6 286 17.5
2008-02-25 08:21:32 51°18.731 2°47.088 290.2 13.6 286 17.6
2008-02-25 08:21:37 51°18.735 2°47.059 290 13.6 286 17.7
2008-02-25 08:21:42 51°18.741 2°47.03 290 13.5 286 17.7
2008-02-25 08:21:47 51°18.745 2°47.001 290.2 13.6 284 17.9
2008-02-25 08:21:52 51°18.75 2°46.972 289.6 13.6 286 17.8
2008-02-25 08:21:57 51°18.756 2°46.943 289.8 13.6 286 18.2
2008-02-25 08:22:02 51°18.76 2°46.914 290.3 13.6 285 18.1
2008-02-25 08:22:07 51°18.766 2°46.885 290.1 13.6 286 18.2
2008-02-25 08:22:12 51°18.771 2°46.857 290.5 13.6 286 18.5
2008-02-25 08:22:17 51°18.776 2°46.828 290.5 13.6 287 18.6
2008-02-25 08:22:22 51°18.782 2°46.799 291 13.6 287 18.7
2008-02-25 08:22:27 51°18.787 2°46.77 291 13.6 286 19.1
2008-02-25 08:22:32 51°18.792 2°46.741 290.9 13.6 286 19.1
2008-02-25 08:22:37 51°18.797 2°46.712 290.6 13.6 286 19.1
2008-02-25 08:22:42 51°18.802 2°46.683 290.3 13.7 285 19.2
2008-02-25 08:22:47 51°18.808 2°46.654 290.2 13.6 287 19.5
2008-02-25 08:22:52 51°18.813 2°46.625 291 13.7 286 19.5
2008-02-25 08:22:57 51°18.819 2°46.596 290.9 13.6 287 19.6
2008-02-25 08:23:02 51°18.824 2°46.567 291 13.6 285 19.8
2008-02-25 08:23:07 51°18.829 2°46.538 291 13.6 286 19.9
2008-02-25 08:23:12 51°18.834 2°46.509 290.9 13.7 285 19.8
2008-02-25 08:23:17 51°18.839 2°46.48 290.9 13.6 286 19.8
2008-02-25 08:23:22 51°18.844 2°46.451 291 13.7 286 19.9
2008-02-25 08:23:27 51°18.849 2°46.422 290.9 13.7 286 20
2008-02-25 08:23:32 51°18.855 2°46.393 291 13.7 286 20.1
2008-02-25 08:23:37 51°18.86 2°46.364 291.2 13.7 286 20.2
2008-02-25 08:23:42 51°18.866 2°46.335 291.9 13.6 289 20.1
2008-02-25 08:23:47 51°18.872 2°46.307 293.4 13.6 288 20.2
2008-02-25 08:23:52 51°18.878 2°46.278 293.9 13.6 290 20.2
2008-02-25 08:23:57 51°18.884 2°46.25 294.8 13.6 289 20.2
2008-02-25 08:24:02 51°18.89 2°46.222 294.9 13.6 289 20.2
2008-02-25 08:24:07 51°18.897 2°46.194 294.7 13.5 291 20.2
2008-02-25 08:24:12 51°18.903 2°46.165 295.2 13.6 289 20.1
2008-02-25 08:24:17 51°18.91 2°46.137 295.3 13.6 290 20
2008-02-25 08:24:22 51°18.916 2°46.108 295 13.6 289 19.8
2008-02-25 08:24:27 51°18.922 2°46.08 294.7 13.6 290 20
2008-02-25 08:24:32 51°18.928 2°46.052 294.6 13.6 288 20.1
2008-02-25 08:24:37 51°18.934 2°46.023 294.2 13.6 290 20
2008-02-25 08:24:42 51°18.94 2°45.995 294.6 13.6 289 20.2
2008-02-25 08:24:47 51°18.947 2°45.967 294.6 13.6 290 19.9
2008-02-25 08:24:52 51°18.953 2°45.938 294.5 13.6 289 20.1
2008-02-25 08:24:57 51°18.959 2°45.91 294.4 13.6 290 19.8
2008-02-25 08:25:02 51°18.966 2°45.881 294.2 13.7 289 19.6
2008-02-25 08:25:07 51°18.972 2°45.853 294.3 13.6 290 19.6
2008-02-25 08:25:12 51°18.979 2°45.825 294.7 13.6 290 19.1
2008-02-25 08:25:17 51°18.985 2°45.796 294.6 13.6 289 18.5
2008-02-25 08:25:22 51°18.991 2°45.768 294.2 13.6 290 18.8
2008-02-25 08:25:27 51°18.998 2°45.739 294.6 13.7 290 18.8
2008-02-25 08:25:32 51°19.004 2°45.71 294.4 13.7 289 18.3
2008-02-25 08:25:37 51°19.01 2°45.682 293.9 13.7 290 17.9
2008-02-25 08:25:42 51°19.016 2°45.653 294.5 13.8 287 17.3
2008-02-25 08:25:47 51°19.023 2°45.625 293.8 13.7 291 17.6
2008-02-25 08:25:52 51°19.029 2°45.596 294.5 13.8 288 17.1
2008-02-25 08:25:57 51°19.036 2°45.568 293.8 13.7 291 16.8
2008-02-25 08:26:02 51°19.041 2°45.539 294.2 13.8 289 15.4
2008-02-25 08:26:07 51°19.048 2°45.51 294.4 13.7 290 16.6
2008-02-25 08:26:12 51°19.055 2°45.482 294.4 13.7 290 15.7
2008-02-25 08:26:17 51°19.061 2°45.453 294.5 13.8 290 15.2
2008-02-25 08:26:22 51°19.068 2°45.424 294.7 13.8 290 14.5
2008-02-25 08:26:27 51°19.074 2°45.396 294.8 13.7 290 13.1
2008-02-25 08:26:32 51°19.081 2°45.367 294.8 13.8 289 14.7
2008-02-25 08:26:37 51°19.087 2°45.338 294.2 13.8 290 13.6
2008-02-25 08:26:42 51°19.094 2°45.309 293.9 13.8 289 11.4
2008-02-25 08:26:47 51°19.1 2°45.28 294.4 13.8 289 13
2008-02-25 08:26:52 51°19.107 2°45.252 293.9 13.8 290 12.4
2008-02-25 08:26:57 51°19.113 2°45.223 294.3 13.8 291 11.6
2008-02-25 08:27:02 51°19.12 2°45.195 295.1 13.8 290 10.7
2008-02-25 08:27:07 51°19.127 2°45.166 295.1 13.8 291 12
2008-02-25 08:27:12 51°19.134 2°45.137 295.2 13.9 290 12.2
2008-02-25 08:27:17 51°19.141 2°45.109 294.7 13.9 291 11.7
2008-02-25 08:27:22 51°19.148 2°45.08 294.8 13.9 292 11
2008-02-25 08:27:27 51°19.155 2°45.051 295.5 13.8 291 10.1
2008-02-25 08:27:32 51°19.162 2°45.023 295.3 13.7 292 9.7
2008-02-25 08:27:37 51°19.169 2°44.995 295.3 13.7 291 11.2
2008-02-25 08:27:42 51°19.175 2°44.966 295.2 13.9 290 10.7
2008-02-25 08:27:47 51°19.182 2°44.937 293.9 13.9 291 7.7
2008-02-25 08:27:52 51°19.188 2°44.908 293.9 13.8 290 10.4
2008-02-25 08:27:57 51°19.195 2°44.88 293.3 13.9 291 11.6
2008-02-25 08:28:02 51°19.202 2°44.851 293.4 14 290 11
2008-02-25 08:28:07 51°19.208 2°44.821 293.3 14.1 290 12.3
2008-02-25 08:28:12 51°19.215 2°44.792 293.1 14.1 290 12.4
2008-02-25 08:28:17 51°19.222 2°44.763 293.2 14.1 290 12.9
2008-02-25 08:28:22 51°19.229 2°44.734 293.1 14 290 14.1
2008-02-25 08:28:27 51°19.235 2°44.704 293.7 14 290 15.9
2008-02-25 08:28:32 51°19.242 2°44.676 293.6 14 292 17.5
2008-02-25 08:28:37 51°19.249 2°44.646 294.4 14 291 18.5
2008-02-25 08:28:42 51°19.256 2°44.618 294.2 13.9 291 19.2
2008-02-25 08:28:47 51°19.263 2°44.589 294.4 13.9 292 19.8
2008-02-25 08:28:52 51°19.27 2°44.561 295.1 13.9 291 20
2008-02-25 08:28:57 51°19.277 2°44.532 294.6 13.8 292 20.3
2008-02-25 08:29:02 51°19.284 2°44.504 294.9 13.8 291 20.2
2008-02-25 08:29:07 51°19.291 2°44.475 294.9 13.7 292 20.5
2008-02-25 08:29:12 51°19.298 2°44.447 295.1 13.7 290 20.6
2008-02-25 08:29:17 51°19.304 2°44.419 294.3 13.7 291 20.7
2008-02-25 08:29:22 51°19.311 2°44.39 294.3 13.6 290 20.7
2008-02-25 08:29:27 51°19.317 2°44.362 294 13.6 290 20.9
2008-02-25 08:29:32 51°19.324 2°44.334 293.9 13.6 290 21
2008-02-25 08:29:37 51°19.331 2°44.306 293.6 13.5 291 21.1
2008-02-25 08:29:42 51°19.337 2°44.278 293.9 13.5 291 21.3
2008-02-25 08:29:47 51°19.344 2°44.25 294.2 13.6 290 21.4
2008-02-25 08:29:52 51°19.351 2°44.222 294.3 13.6 292 21.5
2008-02-25 08:29:57 51°19.357 2°44.194 294.9 13.6 291 21.7
2008-02-25 08:30:02 51°19.364 2°44.166 294.8 13.6 291 21.7
2008-02-25 08:30:07 51°19.371 2°44.137 294.6 13.6 290 21.9
2008-02-25 08:30:12 51°19.378 2°44.109 294.6 13.6 291 22
2008-02-25 08:30:17 51°19.384 2°44.081 294.6 13.5 291 22
2008-02-25 08:30:22 51°19.391 2°44.053 294.3 13.5 291 22.1
2008-02-25 08:30:27 51°19.398 2°44.025 294.5 13.5 291 22.1
2008-02-25 08:30:32 51°19.404 2°43.997 294.4 13.5 290 22.2
2008-02-25 08:30:37 51°19.411 2°43.97 294.1 13.5 291 22.2
2008-02-25 08:30:42 51°19.417 2°43.941 294.3 13.5 290 22.4
2008-02-25 08:30:47 51°19.424 2°43.913 294 13.5 289 22.4
2008-02-25 08:30:52 51°19.43 2°43.885 293.5 13.5 290 22.5
2008-02-25 08:30:57 51°19.436 2°43.857 293.5 13.5 290 22.6
2008-02-25 08:31:02 51°19.443 2°43.829 293.3 13.5 290 22.7
2008-02-25 08:31:07 51°19.45 2°43.801 294.1 13.5 291 22.8
2008-02-25 08:31:12 51°19.456 2°43.773 294.6 13.5 289 22.7
2008-02-25 08:31:17 51°19.463 2°43.745 294.2 13.5 291 22.9
2008-02-25 08:31:22 51°19.469 2°43.717 294.1 13.6 290 22.9
2008-02-25 08:31:27 51°19.476 2°43.689 293.9 13.5 291 22.9
2008-02-25 08:31:32 51°19.482 2°43.661 294.4 13.5 290 23.1
2008-02-25 08:31:37 51°19.489 2°43.633 294 13.5 291 23.2
2008-02-25 08:31:42 51°19.495 2°43.605 294.5 13.5 290 23.3
2008-02-25 08:31:47 51°19.502 2°43.577 294.2 13.5 291 23.3
2008-02-25 08:31:52 51°19.508 2°43.549 294.4 13.5 290 23.4
2008-02-25 08:31:57 51°19.515 2°43.521 294.3 13.5 291 23.6
2008-02-25 08:32:02 51°19.522 2°43.493 294.7 13.5 290 23.8
2008-02-25 08:32:07 51°19.528 2°43.465 294.4 13.5 290 23.8
2008-02-25 08:32:12 51°19.534 2°43.437 293.9 13.6 289 23.7
2008-02-25 08:32:17 51°19.541 2°43.409 293.1 13.5 290 23.8
2008-02-25 08:32:22 51°19.547 2°43.38 293.2 13.6 289 23.9
2008-02-25 08:32:27 51°19.553 2°43.352 293 13.5 289 23.8
2008-02-25 08:32:32 51°19.559 2°43.324 292.7 13.5 289 23.8
2008-02-25 08:32:37 51°19.565 2°43.295 292.8 13.5 289 23.8
2008-02-25 08:32:42 51°19.571 2°43.267 292.9 13.6 289 24.2
2008-02-25 08:32:47 51°19.577 2°43.239 292.8 13.6 289 24.1
2008-02-25 08:32:52 51°19.584 2°43.21 292.9 13.6 289 24
2008-02-25 08:32:57 51°19.59 2°43.182 292.9 13.5 290 24.1
2008-02-25 08:33:02 51°19.596 2°43.154 293.1 13.6 289 24.2
2008-02-25 08:33:07 51°19.602 2°43.125 293.2 13.6 290 24.3
2008-02-25 08:33:12 51°19.609 2°43.097 293.4 13.6 290 24.4
2008-02-25 08:33:17 51°19.615 2°43.069 293.8 13.6 289 24.4
2008-02-25 08:33:22 51°19.622 2°43.041 293.9 13.6 290 24.5
2008-02-25 08:33:27 51°19.628 2°43.012 293.9 13.6 289 24.5
2008-02-25 08:33:32 51°19.634 2°42.984 293.3 13.5 291 24.5
2008-02-25 08:33:37 51°19.641 2°42.955 293.8 13.6 289 24.5
2008-02-25 08:33:42 51°19.647 2°42.927 293.2 13.6 290 24.4
2008-02-25 08:33:47 51°19.653 2°42.899 293.6 13.7 290 24.4
2008-02-25 08:33:52 51°19.66 2°42.87 293.9 13.6 291 24.4
2008-02-25 08:33:57 51°19.667 2°42.842 294.1 13.6 290 24.5
2008-02-25 08:34:02 51°19.673 2°42.814 294 13.6 290 24.3
2008-02-25 08:34:07 51°19.68 2°42.786 293.8 13.6 290 24.2
2008-02-25 08:34:12 51°19.686 2°42.757 293.7 13.6 289 24.5
2008-02-25 08:34:17 51°19.692 2°42.729 293.1 13.6 290 24.3
2008-02-25 08:34:22 51°19.698 2°42.7 293.1 13.6 288 24.4
2008-02-25 08:34:27 51°19.705 2°42.672 292.5 13.6 290 24.2
2008-02-25 08:34:32 51°19.711 2°42.644 292.6 13.6 289 24.3
2008-02-25 08:34:37 51°19.717 2°42.615 292.9 13.6 290 24.2
2008-02-25 08:34:42 51°19.723 2°42.587 293.1 13.6 290 24.1
2008-02-25 08:34:47 51°19.73 2°42.559 293 13.6 290 24.3
2008-02-25 08:34:52 51°19.737 2°42.531 293.4 13.6 290 24.2
2008-02-25 08:34:57 51°19.743 2°42.502 293.7 13.6 290 24.2
2008-02-25 08:35:02 51°19.75 2°42.474 293.9 13.6 290 24.1
2008-02-25 08:35:07 51°19.756 2°42.446 293.9 13.6 290 24
2008-02-25 08:35:12 51°19.763 2°42.418 293.9 13.6 290 24
2008-02-25 08:35:17 51°19.769 2°42.39 293.4 13.6 290 23.7
2008-02-25 08:35:22 51°19.776 2°42.361 293.4 13.6 290 23.8
2008-02-25 08:35:27 51°19.782 2°42.333 293.4 13.6 290 23.5
2008-02-25 08:35:32 51°19.788 2°42.304 293.4 13.6 289 23.2
2008-02-25 08:35:37 51°19.795 2°42.276 292.9 13.6 290 22.1
2008-02-25 08:35:42 51°19.801 2°42.247 293 13.7 289 21.1
2008-02-25 08:35:47 51°19.807 2°42.219 292.8 13.7 289 22.9
2008-02-25 08:35:52 51°19.814 2°42.191 292.6 13.6 291 22.7
2008-02-25 08:35:57 51°19.82 2°42.162 293.2 13.7 289 22.5
2008-02-25 08:36:02 51°19.827 2°42.134 293.2 13.7 290 22.3
2008-02-25 08:36:07 51°19.833 2°42.105 293.1 13.7 290 22.3
2008-02-25 08:36:12 51°19.84 2°42.077 293.5 13.7 289 21.9
2008-02-25 08:36:17 51°19.846 2°42.048 292.9 13.7 290 21
2008-02-25 08:36:22 51°19.852 2°42.019 293.2 13.7 290 19.4
2008-02-25 08:36:27 51°19.858 2°41.991 293.4 13.7 289 21.3
2008-02-25 08:36:32 51°19.865 2°41.962 293 13.7 290 21.1
2008-02-25 08:36:37 51°19.871 2°41.934 293.3 13.7 289 20.8
2008-02-25 08:36:42 51°19.878 2°41.905 293.2 13.7 290 20.5
2008-02-25 08:36:47 51°19.884 2°41.877 293.5 13.7 290 19.9
2008-02-25 08:36:52 51°19.89 2°41.848 293.7 13.7 289 18.6
2008-02-25 08:36:57 51°19.897 2°41.82 293.5 13.7 290 19.8
2008-02-25 08:37:02 51°19.903 2°41.791 293.8 13.7 290 19.3
2008-02-25 08:37:07 51°19.91 2°41.763 293.9 13.6 291 18
2008-02-25 08:37:12 51°19.917 2°41.735 294.4 13.7 290 20.3
2008-02-25 08:37:17 51°19.924 2°41.706 293.9 13.6 291 20.5
2008-02-25 08:37:22 51°19.93 2°41.678 294 13.7 289 19
2008-02-25 08:37:27 51°19.936 2°41.649 293.6 13.6 290 18.5
2008-02-25 08:37:32 51°19.942 2°41.621 293.2 13.7 289 18.7
2008-02-25 08:37:37 51°19.949 2°41.592 292.9 13.7 289 18.5
2008-02-25 08:37:42 51°19.955 2°41.564 292.9 13.7 289 17.3
2008-02-25 08:37:47 51°19.961 2°41.535 293 13.7 289 17.3
2008-02-25 08:37:52 51°19.967 2°41.506 292.6 13.7 289 18.4
2008-02-25 08:37:57 51°19.974 2°41.478 292.9 13.8 290 17.5
2008-02-25 08:38:02 51°19.98 2°41.449 293.3 13.8 289 16
2008-02-25 08:38:07 51°19.986 2°41.42 293.3 13.8 289 18.3
2008-02-25 08:38:12 51°19.993 2°41.392 292.7 13.8 289 16.9
2008-02-25 08:38:17 51°19.999 2°41.363 292.6 13.8 289 18.6
2008-02-25 08:38:22 51°20.005 2°41.334 292.3 13.8 289 19.2
2008-02-25 08:38:27 51°20.011 2°41.305 292.8 13.8 289 18.6
2008-02-25 08:38:32 51°20.018 2°41.276 293 13.8 289 19.8
2008-02-25 08:38:37 51°20.024 2°41.247 293.2 13.8 289 20.3
2008-02-25 08:38:42 51°20.03 2°41.219 293.1 13.8 290 21.1
2008-02-25 08:38:47 51°20.037 2°41.19 293.5 13.8 290 20.6
2008-02-25 08:38:52 51°20.043 2°41.161 293.6 13.8 290 21.9
2008-02-25 08:38:57 51°20.049 2°41.133 293.9 13.8 289 22.4
2008-02-25 08:39:02 51°20.056 2°41.104 293.6 13.8 290 22.6
2008-02-25 08:39:07 51°20.062 2°41.075 293.6 13.7 290 21.8
2008-02-25 08:39:12 51°20.068 2°41.046 293.7 13.8 289 21.2
2008-02-25 08:39:17 51°20.075 2°41.018 293.7 13.8 290 20.2
2008-02-25 08:39:22 51°20.081 2°40.989 293.4 13.7 290 19.9
2008-02-25 08:39:27 51°20.088 2°40.961 293.7 13.7 290 19.5
2008-02-25 08:39:32 51°20.094 2°40.932 293.5 13.8 289 19.1
2008-02-25 08:39:37 51°20.1 2°40.903 293.4 13.8 289 18.3
2008-02-25 08:39:42 51°20.105 2°40.874 292.5 13.8 285 19.5
2008-02-25 08:39:47 51°20.109 2°40.844 289.7 13.8 283 20.9
2008-02-25 08:39:52 51°20.114 2°40.814 286.6 13.8 283 22.2
2008-02-25 08:39:57 51°20.117 2°40.784 285.4 13.8 281 23.2
2008-02-25 08:40:02 51°20.12 2°40.754 283.6 13.8 279 23.9
2008-02-25 08:40:07 51°20.124 2°40.723 282.5 13.8 280 25.3
2008-02-25 08:40:12 51°20.126 2°40.693 282.2 13.8 278 26.7
2008-02-25 08:40:17 51°20.129 2°40.663 281.1 13.8 279 27.3
2008-02-25 08:40:22 51°20.133 2°40.633 281.4 13.7 282 27.6
2008-02-25 08:40:27 51°20.136 2°40.603 283.4 13.8 280 27.5
2008-02-25 08:40:32 51°20.141 2°40.574 284 13.7 283 27.5
2008-02-25 08:40:37 51°20.145 2°40.544 284.4 13.8 283 27.8
2008-02-25 08:40:42 51°20.149 2°40.514 285.3 13.7 282 27.6
2008-02-25 08:40:47 51°20.153 2°40.484 285.2 13.8 281 27.5
2008-02-25 08:40:52 51°20.157 2°40.455 285 13.8 283 27.6
2008-02-25 08:40:57 51°20.161 2°40.425 285.1 13.8 282 27.6
2008-02-25 08:41:02 51°20.165 2°40.395 285.2 13.8 282 27.5
2008-02-25 08:41:07 51°20.169 2°40.365 285.1 13.8 282 27.6
2008-02-25 08:41:12 51°20.173 2°40.335 285.1 13.8 282 27.4
2008-02-25 08:41:17 51°20.177 2°40.305 285.3 13.8 282 27.4
2008-02-25 08:41:22 51°20.181 2°40.276 285 13.7 282 27.3
2008-02-25 08:41:27 51°20.185 2°40.246 285.1 13.8 281 27.3
2008-02-25 08:41:32 51°20.189 2°40.216 284.4 13.8 282 27.4
2008-02-25 08:41:37 51°20.193 2°40.186 284.5 13.8 282 27.4
2008-02-25 08:41:42 51°20.197 2°40.156 284.6 13.8 281 27.2
2008-02-25 08:41:47 51°20.2 2°40.126 284.5 13.8 281 27
2008-02-25 08:41:52 51°20.205 2°40.097 284.5 13.8 282 27
2008-02-25 08:41:57 51°20.208 2°40.067 285.1 13.8 281 26.8
2008-02-25 08:42:02 51°20.212 2°40.037 284.7 13.8 282 26.9
2008-02-25 08:42:07 51°20.216 2°40.007 285.1 13.8 281 27
2008-02-25 08:42:12 51°20.22 2°39.977 284.9 13.8 282 26.9
2008-02-25 08:42:17 51°20.223 2°39.947 284.8 13.8 282 27
2008-02-25 08:42:22 51°20.227 2°39.917 284.7 13.8 281 27.1
2008-02-25 08:42:27 51°20.231 2°39.887 284.7 13.8 282 27.1
2008-02-25 08:42:32 51°20.235 2°39.857 284.8 13.8 281 27.2
2008-02-25 08:42:37 51°20.239 2°39.827 284.5 13.8 282 27
2008-02-25 08:42:42 51°20.243 2°39.797 285.1 13.8 282 27.1
2008-02-25 08:42:47 51°20.247 2°39.768 285.3 13.8 282 27.2
2008-02-25 08:42:52 51°20.252 2°39.738 285.4 13.7 283 27
2008-02-25 08:42:57 51°20.256 2°39.708 285.9 13.8 282 26.9
2008-02-25 08:43:02 51°20.26 2°39.678 285.8 13.8 283 26.6
2008-02-25 08:43:07 51°20.263 2°39.648 285.6 13.7 282 26.2
2008-02-25 08:43:12 51°20.267 2°39.618 285 13.8 281 25.8
2008-02-25 08:43:17 51°20.271 2°39.589 284.3 13.8 282 25.7
2008-02-25 08:43:22 51°20.275 2°39.559 284.5 13.8 281 25.6
2008-02-25 08:43:27 51°20.279 2°39.529 284.4 13.7 282 25.2
2008-02-25 08:43:32 51°20.283 2°39.499 284.6 13.8 282 25.3
2008-02-25 08:43:37 51°20.287 2°39.47 284.8 13.7 282 25
2008-02-25 08:43:42 51°20.29 2°39.44 284.9 13.7 282 25
2008-02-25 08:43:47 51°20.294 2°39.41 284.7 13.8 282 24.7
2008-02-25 08:43:52 51°20.298 2°39.38 284.8 13.8 282 24.6
2008-02-25 08:43:57 51°20.302 2°39.35 285.1 13.8 282 24.5
2008-02-25 08:44:02 51°20.307 2°39.32 285 13.9 283 24.3
2008-02-25 08:44:07 51°20.311 2°39.29 285.6 13.8 282 24.1
2008-02-25 08:44:12 51°20.315 2°39.26 285.4 13.9 282 24
2008-02-25 08:44:17 51°20.319 2°39.23 285.3 13.9 283 23.6
2008-02-25 08:44:22 51°20.323 2°39.2 285.6 13.9 282 23.7
2008-02-25 08:44:27 51°20.328 2°39.17 285.9 13.8 283 23.6
2008-02-25 08:44:32 51°20.331 2°39.14 285.8 13.9 281 23.5
2008-02-25 08:44:37 51°20.336 2°39.11 285.1 13.9 283 23.7
2008-02-25 08:44:42 51°20.339 2°39.08 285.4 13.9 282 23.7
2008-02-25 08:44:47 51°20.343 2°39.05 285.3 13.9 282 23.7
2008-02-25 08:44:52 51°20.348 2°39.02 285.2 13.8 282 23.3
2008-02-25 08:44:57 51°20.351 2°38.99 285.3 13.8 281 23.1
2008-02-25 08:45:02 51°20.355 2°38.96 284.8 13.9 282 23.5
2008-02-25 08:45:07 51°20.359 2°38.93 285.1 13.9 282 23.4
2008-02-25 08:45:12 51°20.364 2°38.9 285.4 13.8 282 23.3
2008-02-25 08:45:17 51°20.368 2°38.87 285.6 13.8 283 23.2
2008-02-25 08:45:22 51°20.372 2°38.84 285.5 13.8 283 22.8
2008-02-25 08:45:27 51°20.376 2°38.81 285.9 13.9 282 21.7
2008-02-25 08:45:32 51°20.381 2°38.78 285.6 13.8 283 22.6
2008-02-25 08:45:37 51°20.385 2°38.75 285.9 14 282 23.2
2008-02-25 08:45:42 51°20.389 2°38.72 285.9 13.9 284 23.3
2008-02-25 08:45:47 51°20.393 2°38.69 286.4 13.9 282 23.4
2008-02-25 08:45:52 51°20.398 2°38.66 285.4 13.9 283 23.6
2008-02-25 08:45:57 51°20.402 2°38.63 285.5 13.9 282 23.7
2008-02-25 08:46:02 51°20.406 2°38.6 285.1 13.9 282 23.6
2008-02-25 08:46:07 51°20.41 2°38.57 284.4 13.8 282 23.5
2008-02-25 08:46:12 51°20.414 2°38.54 285 13.9 282 23.4
2008-02-25 08:46:17 51°20.418 2°38.51 284.8 13.9 283 23.3
2008-02-25 08:46:22 51°20.422 2°38.48 285.5 13.9 282 23.3
2008-02-25 08:46:27 51°20.426 2°38.45 285.4 13.9 283 23
2008-02-25 08:46:32 51°20.431 2°38.42 285.4 13.9 282 22.5
2008-02-25 08:46:37 51°20.435 2°38.389 285.5 14 282 21.4
2008-02-25 08:46:42 51°20.439 2°38.359 285.2 13.9 283 22.7
2008-02-25 08:46:47 51°20.443 2°38.329 285.7 14 282 23
2008-02-25 08:46:52 51°20.448 2°38.299 285.2 14 283 22.8
2008-02-25 08:46:57 51°20.452 2°38.268 285.4 13.9 283 22.8
2008-02-25 08:47:02 51°20.455 2°38.238 285.7 14 282 22.2
2008-02-25 08:47:07 51°20.46 2°38.208 285.3 14 282 22.4
2008-02-25 08:47:12 51°20.464 2°38.178 285.1 14 283 22.8
2008-02-25 08:47:17 51°20.468 2°38.147 285.4 14 282 22.2
2008-02-25 08:47:22 51°20.473 2°38.117 285.2 14 283 22.3
2008-02-25 08:47:27 51°20.477 2°38.087 285.6 14 283 22.8
2008-02-25 08:47:32 51°20.481 2°38.057 285.9 14 283 22.6
2008-02-25 08:47:37 51°20.486 2°38.026 285.7 14 284 22.2
2008-02-25 08:47:42 51°20.49 2°37.996 286.1 14 283 21.3
2008-02-25 08:47:47 51°20.494 2°37.966 285.5 14 283 22.3
2008-02-25 08:47:52 51°20.499 2°37.936 285.4 14 283 21.3
2008-02-25 08:47:57 51°20.503 2°37.905 285.8 14 281 22.6
2008-02-25 08:48:02 51°20.507 2°37.875 284.7 14 283 22.4
2008-02-25 08:48:07 51°20.511 2°37.845 285 14 282 22.5
2008-02-25 08:48:12 51°20.515 2°37.814 284.8 14 282 21.7
2008-02-25 08:48:17 51°20.52 2°37.784 284.4 14 283 21.5
2008-02-25 08:48:22 51°20.523 2°37.754 285.4 14 281 22.6
2008-02-25 08:48:27 51°20.528 2°37.724 285 14 283 22.5
2008-02-25 08:48:32 51°20.532 2°37.693 285.4 14 283 22.1
2008-02-25 08:48:37 51°20.536 2°37.663 285.7 14 283 22.1
2008-02-25 08:48:42 51°20.541 2°37.632 285.1 14 283 22.2
2008-02-25 08:48:47 51°20.545 2°37.602 285.1 14 282 22.2
2008-02-25 08:48:52 51°20.549 2°37.572 285 14 282 22.1
2008-02-25 08:48:57 51°20.553 2°37.542 284.5 14 282 22
2008-02-25 08:49:02 51°20.557 2°37.511 284.2 14.1 282 20.9
2008-02-25 08:49:07 51°20.561 2°37.481 284.5 14.1 283 21.8
2008-02-25 08:49:12 51°20.565 2°37.451 285.1 14.1 283 22.5
2008-02-25 08:49:17 51°20.57 2°37.42 285.7 14.1 283 22.2
2008-02-25 08:49:22 51°20.574 2°37.39 285.9 14 283 21.2
2008-02-25 08:49:27 51°20.579 2°37.359 286.1 14 283 21.4
2008-02-25 08:49:32 51°20.583 2°37.329 285.7 14 282 22.7
2008-02-25 08:49:37 51°20.587 2°37.299 285.2 14 282 21.4
2008-02-25 08:49:42 51°20.591 2°37.268 285 14 282 22.2
2008-02-25 08:49:47 51°20.595 2°37.238 284.8 14 282 22.6
2008-02-25 08:49:52 51°20.6 2°37.208 285.1 14 284 22.2
2008-02-25 08:49:57 51°20.604 2°37.177 285.8 14.1 282 22.1
2008-02-25 08:50:02 51°20.608 2°37.147 285.3 14.1 284 22.4
2008-02-25 08:50:07 51°20.613 2°37.116 285.7 14.1 282 22.2
2008-02-25 08:50:12 51°20.617 2°37.086 285.9 14.1 283 21.7
2008-02-25 08:50:17 51°20.621 2°37.055 285.9 14.1 282 21.4
2008-02-25 08:50:22 51°20.625 2°37.025 285.7 14 283 21.6